createdAt,value
2017-11-09T00:01:00.791Z,83.80
2017-11-09T00:03:29.735Z,83.90
2017-11-09T00:06:04.511Z,83.70
2017-11-09T00:08:32.867Z,83.60
2017-11-09T00:11:01.219Z,84.40
2017-11-09T00:13:29.623Z,83.80
2017-11-09T00:16:00.063Z,83.90
2017-11-09T00:18:28.420Z,83.70
2017-11-09T00:20:58.813Z,83.50
2017-11-09T00:23:28.103Z,83.70
2017-11-09T00:25:56.459Z,83.30
2017-11-09T00:28:25.636Z,83.20
2017-11-09T00:30:54.224Z,83.20
2017-11-09T00:33:22.580Z,83.10
2017-11-09T00:35:50.976Z,83.40
2017-11-09T00:38:19.331Z,83.80
2017-11-09T00:40:48.751Z,83.60
2017-11-09T00:45:51.392Z,83.50
2017-11-09T00:48:19.743Z,84.20
2017-11-09T00:50:49.931Z,84.00
2017-11-09T00:53:18.319Z,83.90
2017-11-09T00:55:46.671Z,83.70
2017-11-09T00:58:15.024Z,83.80
2017-11-09T01:00:43.435Z,84.10
2017-11-09T01:03:12.553Z,84.10
2017-11-09T01:05:40.908Z,84.10
2017-11-09T01:08:09.302Z,84.00
2017-11-09T01:10:38.800Z,84.10
2017-11-09T01:13:07.412Z,84.00
2017-11-09T01:15:36.575Z,83.90
2017-11-09T01:18:04.927Z,83.80
2017-11-09T01:20:33.282Z,84.00
2017-11-09T01:23:01.684Z,83.90
2017-11-09T01:25:31.064Z,83.90
2017-11-09T01:27:59.418Z,83.90
2017-11-09T01:30:30.652Z,83.90
2017-11-09T01:32:59.775Z,84.20
2017-11-09T01:35:29.184Z,84.10
2017-11-09T01:37:57.562Z,84.20
2017-11-09T01:40:25.915Z,84.20
2017-11-09T01:42:55.029Z,83.90
2017-11-09T01:45:24.119Z,83.80
2017-11-09T01:47:52.471Z,83.90
2017-11-09T01:50:21.580Z,84.20
2017-11-09T01:52:49.970Z,84.30
2017-11-09T01:55:18.576Z,84.00
2017-11-09T01:57:46.586Z,84.30
2017-11-09T02:00:14.872Z,84.30
2017-11-09T02:02:43.993Z,83.90
2017-11-09T02:05:12.395Z,84.00
2017-11-09T02:07:40.743Z,83.90
2017-11-09T02:10:09.096Z,84.00
2017-11-09T02:12:38.277Z,83.80
2017-11-09T02:15:07.601Z,83.80
2017-11-09T02:17:35.604Z,83.60
2017-11-09T02:20:03.319Z,83.70
2017-11-09T02:22:31.234Z,83.70
2017-11-09T02:24:59.663Z,83.90
2017-11-09T02:27:28.484Z,84.00
2017-11-09T02:29:56.147Z,84.00
2017-11-09T02:32:24.156Z,83.90
2017-11-09T02:34:52.192Z,83.80
2017-11-09T02:37:20.540Z,83.70
2017-11-09T02:39:48.544Z,83.80
2017-11-09T02:42:16.919Z,83.70
2017-11-09T02:44:45.268Z,83.60
2017-11-09T02:47:13.271Z,84.00
2017-11-09T02:49:41.679Z,83.80
2017-11-09T02:52:10.576Z,83.90
2017-11-09T02:54:38.936Z,83.50
2017-11-09T02:57:06.643Z,83.60
2017-11-09T02:59:34.303Z,83.50
2017-11-09T03:02:02.664Z,83.70
2017-11-09T03:04:32.863Z,83.80
2017-11-09T03:07:01.220Z,83.70
2017-11-09T03:09:29.567Z,84.20
2017-11-09T03:11:58.228Z,84.20
2017-11-09T03:14:27.348Z,83.90
2017-11-09T03:16:55.707Z,83.90
2017-11-09T03:19:24.125Z,83.70
2017-11-09T03:21:52.476Z,83.70
2017-11-09T03:24:20.840Z,83.80
2017-11-09T03:26:49.237Z,84.00
2017-11-09T03:29:17.589Z,83.70
2017-11-09T03:31:45.948Z,83.90
2017-11-09T03:34:15.214Z,83.60
2017-11-09T03:36:43.571Z,83.60
2017-11-09T03:39:11.927Z,83.40
2017-11-09T03:41:39.627Z,83.60
2017-11-09T03:44:08.666Z,83.70
2017-11-09T03:46:37.096Z,84.10
2017-11-09T03:49:05.479Z,84.10
2017-11-09T03:51:33.830Z,84.20
2017-11-09T03:54:02.185Z,84.30
2017-11-09T03:56:30.594Z,84.40
2017-11-09T03:58:59.977Z,83.90
2017-11-09T04:01:28.331Z,83.80
2017-11-09T04:03:57.476Z,84.10
2017-11-09T04:06:26.599Z,84.40
2017-11-09T04:08:56.944Z,84.40
2017-11-09T04:11:26.067Z,84.10
2017-11-09T04:13:54.428Z,84.00
2017-11-09T04:16:22.917Z,84.00
2017-11-09T04:18:52.268Z,83.80
2017-11-09T04:21:20.620Z,84.00
2017-11-09T04:23:49.004Z,83.90
2017-11-09T04:26:17.355Z,84.30
2017-11-09T04:28:45.706Z,84.10
2017-11-09T04:31:14.868Z,84.30
2017-11-09T04:33:43.227Z,84.30
2017-11-09T04:36:11.584Z,84.10
2017-11-09T04:38:39.963Z,84.30
2017-11-09T04:41:08.315Z,84.20
2017-11-09T04:43:36.691Z,84.50
2017-11-09T04:46:05.974Z,84.30
2017-11-09T04:48:35.148Z,84.60
2017-11-09T04:51:03.768Z,84.60
2017-11-09T04:53:32.883Z,84.10
2017-11-09T04:56:01.271Z,84.10
2017-11-09T04:58:30.612Z,84.40
2017-11-09T05:00:58.964Z,84.40
2017-11-09T05:03:27.374Z,84.20
2017-11-09T05:05:55.729Z,84.30
2017-11-09T05:08:24.078Z,84.10
2017-11-09T05:10:52.491Z,84.00
2017-11-09T05:13:20.846Z,84.20
2017-11-09T05:15:49.207Z,84.20
2017-11-09T05:18:18.588Z,84.20
2017-11-09T05:20:47.478Z,84.30
2017-11-09T05:23:15.838Z,84.00
2017-11-09T05:25:44.141Z,83.80
2017-11-09T05:28:12.491Z,83.80
2017-11-09T05:30:41.427Z,84.30
2017-11-09T05:33:10.783Z,84.30
2017-11-09T05:35:39.903Z,84.10
2017-11-09T05:38:09.263Z,84.00
2017-11-09T05:40:37.896Z,84.20
2017-11-09T05:43:06.252Z,84.40
2017-11-09T05:45:34.631Z,84.20
2017-11-09T05:48:03.523Z,84.30
2017-11-09T05:50:31.880Z,84.10
2017-11-09T05:53:01.023Z,84.40
2017-11-09T05:55:28.696Z,85.10
2017-11-09T05:57:57.723Z,84.60
2017-11-09T06:00:26.195Z,84.60
2017-11-09T06:02:54.551Z,84.60
2017-11-09T06:05:22.724Z,84.50
2017-11-09T06:07:52.367Z,84.30
2017-11-09T06:10:21.493Z,84.50
2017-11-09T06:12:49.567Z,84.40
2017-11-09T06:15:17.919Z,84.50
2017-11-09T06:17:47.186Z,84.20
2017-11-09T06:20:15.885Z,84.30
2017-11-09T06:22:44.236Z,84.20
2017-11-09T06:25:12.594Z,84.40
2017-11-09T06:27:40.975Z,84.40
2017-11-09T06:30:09.328Z,85.50
2017-11-09T06:32:38.701Z,84.70
2017-11-09T06:35:07.823Z,84.70
2017-11-09T06:37:36.180Z,84.60
2017-11-09T06:40:05.004Z,84.50
2017-11-09T06:42:33.357Z,84.50
2017-11-09T06:45:01.970Z,84.50
2017-11-09T06:47:30.351Z,84.40
2017-11-09T06:49:58.711Z,84.40
2017-11-09T06:52:27.963Z,84.30
2017-11-09T06:54:56.619Z,84.40
2017-11-09T06:57:25.888Z,84.70
2017-11-09T06:59:54.291Z,84.60
2017-11-09T07:02:23.574Z,84.40
2017-11-09T07:04:51.942Z,84.50
2017-11-09T07:07:21.576Z,84.40
2017-11-09T07:09:50.340Z,84.40
2017-11-09T07:12:19.683Z,84.40
2017-11-09T07:14:48.084Z,84.60
2017-11-09T07:17:17.241Z,84.30
2017-11-09T07:19:45.611Z,84.30
2017-11-09T07:22:14.009Z,84.40
2017-11-09T07:24:42.366Z,84.60
2017-11-09T07:27:13.623Z,84.20
2017-11-09T07:29:42.751Z,84.40
2017-11-09T07:32:11.890Z,84.60
2017-11-09T07:34:39.945Z,84.40
2017-11-09T07:37:08.311Z,84.40
2017-11-09T07:39:36.567Z,84.30
2017-11-09T07:42:07.704Z,84.40
2017-11-09T07:44:36.822Z,84.80
2017-11-09T07:47:05.183Z,84.80
2017-11-09T07:49:34.315Z,85.10
2017-11-09T07:52:02.668Z,85.10
2017-11-09T07:54:31.020Z,85.00
2017-11-09T07:56:59.420Z,85.20
2017-11-09T07:59:27.767Z,85.00
2017-11-09T08:01:56.386Z,85.70
2017-11-09T08:04:25.529Z,84.90
2017-11-09T08:06:54.787Z,84.80
2017-11-09T08:09:23.407Z,84.90
2017-11-09T08:11:51.779Z,85.60
2017-11-09T08:14:20.136Z,84.80
2017-11-09T08:16:48.498Z,84.80
2017-11-09T08:19:17.634Z,84.50
2017-11-09T08:21:45.555Z,84.50
2017-11-09T08:24:16.935Z,84.80
2017-11-09T08:26:47.520Z,84.70
2017-11-09T08:29:16.987Z,84.70
2017-11-09T08:31:46.496Z,84.50
2017-11-09T08:34:14.855Z,84.50
2017-11-09T08:36:43.215Z,84.70
2017-11-09T08:39:11.579Z,85.20
2017-11-09T08:41:40.703Z,85.00
2017-11-09T08:44:10.053Z,84.90
2017-11-09T08:46:38.681Z,85.10
2017-11-09T08:49:07.037Z,85.20
2017-11-09T08:51:36.159Z,85.10
2017-11-09T08:54:05.032Z,85.00
2017-11-09T08:56:33.387Z,85.30
2017-11-09T08:59:02.506Z,85.30
2017-11-09T09:01:30.875Z,85.50
2017-11-09T09:03:59.807Z,85.30
2017-11-09T09:06:28.160Z,84.50
2017-11-09T09:08:57.627Z,84.60
2017-11-09T09:11:26.742Z,84.80
2017-11-09T09:13:54.914Z,84.70
2017-11-09T09:16:24.079Z,85.00
2017-11-09T09:18:52.243Z,85.10
2017-11-09T09:21:26.031Z,85.00
2017-11-09T09:23:55.239Z,85.00
2017-11-09T09:26:29.935Z,85.00
2017-11-09T09:28:58.903Z,85.10
2017-11-09T09:31:27.193Z,85.30
2017-11-09T09:37:14.854Z,84.00
2017-11-09T09:39:47.111Z,84.70
2017-11-09T09:42:15.535Z,84.80
2017-11-09T09:44:43.708Z,85.10
2017-11-09T09:47:11.895Z,85.00
2017-11-09T09:49:40.063Z,84.20
2017-11-09T09:52:12.475Z,84.30
2017-11-09T09:54:40.663Z,84.30
2017-11-09T09:57:08.830Z,84.40
2017-11-09T09:59:37.184Z,84.40
2017-11-09T10:02:06.143Z,84.20
2017-11-09T10:04:34.744Z,84.20
2017-11-09T10:07:03.356Z,84.40
2017-11-09T10:09:31.743Z,84.30
2017-11-09T10:12:00.095Z,85.10
2017-11-09T10:14:29.027Z,84.70
2017-11-09T10:16:57.391Z,84.50
2017-11-09T10:19:25.745Z,84.40
2017-11-09T10:21:54.356Z,84.50
2017-11-09T10:24:22.732Z,85.00
2017-11-09T10:26:51.091Z,85.10
2017-11-09T10:29:19.704Z,85.30
2017-11-09T10:31:47.379Z,85.00
2017-11-09T10:34:15.739Z,85.00
2017-11-09T10:36:45.131Z,84.90
2017-11-09T10:39:13.484Z,84.90
2017-11-09T10:41:41.842Z,84.90
2017-11-09T10:44:10.475Z,84.90
2017-11-09T10:46:38.833Z,84.80
2017-11-09T10:49:07.188Z,84.80
2017-11-09T10:51:35.823Z,85.00
2017-11-09T10:54:04.940Z,85.40
2017-11-09T10:56:33.292Z,85.50
2017-11-09T10:59:02.432Z,85.80
2017-11-09T11:01:31.555Z,85.50
2017-11-09T11:04:00.162Z,85.50
2017-11-09T11:06:28.191Z,85.40
2017-11-09T11:08:58.280Z,85.00
2017-11-09T11:11:26.633Z,85.00
2017-11-09T11:13:56.930Z,85.20
2017-11-09T11:16:25.280Z,85.20
2017-11-09T11:18:55.387Z,85.10
2017-11-09T11:21:25.419Z,85.10
2017-11-09T11:23:55.524Z,85.10
2017-11-09T11:26:24.663Z,85.60
2017-11-09T11:28:53.916Z,85.60
2017-11-09T11:31:22.536Z,85.50
2017-11-09T11:33:51.903Z,85.70
2017-11-09T11:36:21.029Z,85.70
2017-11-09T11:38:49.375Z,85.70
2017-11-09T11:41:18.508Z,85.10
2017-11-09T11:43:46.865Z,85.00
2017-11-09T11:46:16.015Z,85.30
2017-11-09T11:48:44.379Z,85.30
2017-11-09T11:51:12.735Z,84.90
2017-11-09T11:53:41.099Z,84.80
2017-11-09T11:56:09.454Z,84.40
2017-11-09T11:58:38.095Z,84.40
2017-11-09T12:01:06.457Z,84.30
2017-11-09T12:03:36.788Z,84.40
2017-11-09T12:06:04.463Z,84.90
2017-11-09T12:08:35.407Z,84.10
2017-11-09T12:11:03.925Z,84.40
2017-11-09T12:13:33.045Z,84.80
2017-11-09T12:16:01.391Z,84.80
2017-11-09T12:18:30.542Z,85.50
2017-11-09T12:20:58.907Z,85.50
2017-11-09T12:23:28.239Z,85.60
2017-11-09T12:25:56.606Z,85.50
2017-11-09T12:28:24.973Z,85.60
2017-11-09T12:30:54.354Z,85.50
2017-11-09T12:33:22.731Z,85.50
2017-11-09T12:35:51.079Z,85.50
2017-11-09T12:38:20.222Z,85.80
2017-11-09T12:40:49.594Z,85.90
2017-11-09T12:43:17.943Z,85.90
2017-11-09T12:45:46.898Z,85.40
2017-11-09T12:48:15.103Z,85.40
2017-11-09T12:50:44.228Z,85.30
2017-11-09T12:53:12.595Z,85.30
2017-11-09T12:55:40.947Z,84.80
2017-11-09T12:58:09.563Z,84.60
2017-11-09T13:00:37.936Z,84.80
2017-11-09T13:03:06.287Z,84.70
2017-11-09T13:05:34.641Z,85.20
2017-11-09T13:08:03.284Z,84.90
2017-11-09T13:10:31.639Z,85.10
2017-11-09T13:13:00.787Z,84.90
2017-11-09T13:15:28.959Z,84.90
2017-11-09T13:17:57.315Z,85.00
2017-11-09T13:20:25.691Z,84.60
2017-11-09T13:22:54.043Z,84.30
2017-11-09T13:25:22.399Z,84.50
2017-11-09T13:27:51.547Z,84.50
2017-11-09T13:30:20.155Z,84.50
2017-11-09T13:32:48.502Z,84.50
2017-11-09T13:35:17.952Z,85.00
2017-11-09T13:37:46.306Z,85.20
2017-11-09T13:40:14.728Z,85.50
2017-11-09T13:42:43.339Z,85.10
2017-11-09T13:45:12.640Z,85.20
2017-11-09T13:47:41.003Z,85.10
2017-11-09T13:50:10.368Z,85.00
2017-11-09T13:52:39.263Z,84.80
2017-11-09T13:55:10.244Z,84.70
2017-11-09T13:57:38.410Z,84.60
2017-11-09T14:00:09.234Z,84.90
2017-11-09T14:02:37.603Z,84.70
2017-11-09T14:05:06.967Z,84.60
2017-11-09T14:07:35.323Z,84.50
2017-11-09T14:10:03.688Z,84.50
2017-11-09T14:12:32.040Z,84.40
2017-11-09T14:15:00.411Z,84.50
2017-11-09T14:17:28.765Z,84.60
2017-11-09T14:19:57.376Z,84.70
2017-11-09T14:22:26.752Z,84.60
2017-11-09T14:24:55.363Z,84.50
2017-11-09T14:27:23.537Z,84.60
2017-11-09T14:29:51.982Z,84.40
2017-11-09T14:32:20.587Z,84.40
2017-11-09T14:34:49.024Z,84.40
2017-11-09T14:37:17.395Z,84.30
2017-11-09T14:39:45.759Z,84.40
2017-11-09T14:42:14.119Z,84.40
2017-11-09T14:44:42.485Z,84.40
2017-11-09T14:47:10.843Z,84.40
2017-11-09T14:49:39.975Z,84.40
2017-11-09T14:52:08.337Z,84.40
2017-11-09T14:54:36.691Z,84.50
2017-11-09T14:57:05.838Z,84.60
2017-11-09T14:59:34.200Z,84.70
2017-11-09T15:02:02.560Z,84.70
2017-11-09T15:04:30.939Z,84.70
2017-11-09T15:06:59.307Z,84.70
2017-11-09T15:09:27.475Z,84.60
2017-11-09T15:11:55.838Z,84.80
2017-11-09T15:14:24.967Z,84.70
2017-11-09T15:16:52.975Z,84.70
2017-11-09T15:19:21.343Z,84.80
2017-11-09T15:21:49.699Z,84.80
2017-11-09T15:24:17.862Z,84.50
2017-11-09T15:26:46.050Z,84.20
2017-11-09T15:29:14.404Z,84.20
2017-11-09T15:31:46.536Z,83.80
2017-11-09T15:34:15.466Z,83.70
2017-11-09T15:36:43.819Z,83.70
2017-11-09T15:39:12.731Z,83.80
2017-11-09T15:41:41.088Z,84.20
2017-11-09T15:44:09.704Z,84.50
2017-11-09T15:46:39.116Z,84.60
2017-11-09T15:49:07.470Z,84.60
2017-11-09T15:51:35.821Z,84.70
2017-11-09T15:54:05.719Z,84.80
2017-11-09T15:56:34.845Z,84.80
2017-11-09T15:59:03.199Z,84.70
2017-11-09T16:01:32.347Z,85.00
2017-11-09T16:04:00.703Z,84.80
2017-11-09T16:06:29.059Z,85.00
2017-11-09T16:08:57.463Z,84.90
2017-11-09T16:11:25.807Z,84.90
2017-11-09T16:13:58.699Z,85.20
2017-11-09T16:16:27.060Z,85.20
2017-11-09T16:18:56.179Z,84.80
2017-11-09T16:21:24.579Z,84.80
2017-11-09T16:23:53.679Z,84.80
2017-11-09T16:26:22.039Z,84.80
2017-11-09T16:28:50.415Z,84.90
2017-11-09T16:31:18.767Z,85.00
2017-11-09T16:33:47.127Z,85.00
2017-11-09T16:36:15.494Z,85.00
2017-11-09T16:38:43.843Z,85.00
2017-11-09T16:41:12.479Z,84.90
2017-11-09T16:43:41.836Z,84.90
2017-11-09T16:46:10.187Z,85.10
2017-11-09T16:48:38.564Z,85.10
2017-11-09T16:51:06.923Z,85.10
2017-11-09T16:53:36.279Z,85.20
2017-11-09T16:56:04.663Z,85.00
2017-11-09T16:58:33.031Z,84.80
2017-11-09T17:01:01.395Z,84.60
2017-11-09T17:03:29.759Z,84.80
2017-11-09T17:05:58.116Z,84.90
2017-11-09T17:08:26.467Z,84.90
2017-11-09T17:10:55.602Z,84.80
2017-11-09T17:13:23.961Z,84.80
2017-11-09T17:15:52.314Z,84.70
2017-11-09T17:18:23.103Z,84.60
2017-11-09T17:20:51.458Z,84.60
2017-11-09T17:23:19.810Z,84.80
2017-11-09T17:25:48.956Z,85.00
2017-11-09T17:28:17.311Z,85.00
2017-11-09T17:30:45.659Z,85.20
2017-11-09T17:33:14.034Z,85.10
2017-11-09T17:35:42.390Z,85.00
2017-11-09T17:38:10.743Z,84.90
2017-11-09T17:40:39.203Z,85.00
2017-11-09T17:43:08.580Z,84.80
2017-11-09T17:45:37.940Z,84.70
2017-11-09T17:48:06.312Z,84.80
2017-11-09T17:50:34.923Z,84.90
2017-11-09T17:53:04.054Z,84.90
2017-11-09T17:55:32.687Z,84.80
2017-11-09T17:58:01.825Z,84.80
2017-11-09T18:00:30.424Z,84.80
2017-11-09T18:03:05.619Z,84.60
2017-11-09T18:05:34.745Z,84.70
2017-11-09T18:08:04.127Z,84.70
2017-11-09T18:10:32.506Z,84.80
2017-11-09T18:13:01.124Z,84.70
2017-11-09T18:15:29.482Z,82.80
2017-11-09T18:17:57.848Z,84.60
2017-11-09T18:20:26.203Z,84.70
2017-11-09T18:23:05.161Z,84.80
2017-11-09T18:25:33.770Z,84.70
2017-11-09T18:28:04.107Z,85.10
2017-11-09T18:30:32.475Z,84.60
2017-11-09T18:33:00.835Z,84.30
2017-11-09T18:35:29.979Z,84.30
2017-11-09T18:38:01.048Z,84.60
2017-11-09T18:40:29.411Z,84.60
2017-11-09T18:42:58.688Z,84.70
2017-11-09T18:45:27.807Z,84.90
2017-11-09T18:47:56.189Z,84.80
2017-11-09T18:50:24.540Z,84.90
2017-11-09T18:52:53.476Z,84.80
2017-11-09T18:55:21.850Z,84.80
2017-11-09T18:57:50.214Z,84.70
2017-11-09T19:00:18.566Z,84.70
2017-11-09T19:02:47.703Z,84.60
2017-11-09T19:05:16.123Z,84.60
2017-11-09T19:07:44.478Z,84.60
2017-11-09T19:10:14.377Z,85.00
2017-11-09T19:12:43.759Z,84.50
2017-11-09T19:15:12.108Z,84.50
2017-11-09T19:17:41.256Z,84.50
2017-11-09T19:20:09.604Z,84.50
2017-11-09T19:22:37.972Z,84.60
2017-11-09T19:25:06.403Z,84.50
2017-11-09T19:27:34.761Z,84.40
2017-11-09T19:30:03.494Z,84.80
2017-11-09T19:32:31.912Z,84.80
2017-11-09T19:35:00.079Z,84.80
2017-11-09T19:37:28.455Z,84.50
2017-11-09T19:39:56.627Z,84.70
2017-11-09T19:42:25.251Z,84.80
2017-11-09T19:44:53.659Z,84.80
2017-11-09T19:47:22.778Z,84.90
2017-11-09T19:49:51.132Z,85.00
2017-11-09T19:52:20.262Z,85.00
2017-11-09T19:54:48.615Z,85.00
2017-11-09T19:57:16.970Z,85.00
2017-11-09T19:59:46.115Z,84.50
2017-11-09T20:02:14.467Z,84.50
2017-11-09T20:04:43.088Z,84.10
2017-11-09T20:07:11.446Z,83.80
2017-11-09T20:09:39.798Z,84.20
2017-11-09T20:12:08.158Z,84.10
2017-11-09T20:14:37.291Z,84.00
2017-11-09T20:17:05.652Z,83.90
2017-11-09T20:19:34.322Z,83.90
2017-11-09T20:22:02.685Z,83.90
2017-11-09T20:24:33.029Z,83.90
2017-11-09T20:27:02.179Z,84.10
2017-11-09T20:29:30.564Z,84.10
2017-11-09T20:31:58.928Z,84.20
2017-11-09T20:34:27.316Z,83.90
2017-11-09T20:36:55.419Z,83.60
2017-11-09T20:39:24.600Z,83.90
2017-11-09T20:41:53.736Z,83.90
2017-11-09T20:44:22.933Z,84.10
2017-11-09T20:46:51.344Z,84.40
2017-11-09T20:49:20.490Z,84.10
2017-11-09T20:51:48.872Z,84.20
2017-11-09T20:54:17.470Z,84.30
2017-11-09T20:56:45.831Z,84.10
2017-11-09T20:59:14.220Z,84.10
2017-11-09T21:01:42.574Z,84.00
2017-11-09T21:04:11.739Z,83.90
2017-11-09T21:06:40.096Z,83.00
2017-11-09T21:09:08.455Z,83.60
2017-11-09T21:11:37.608Z,83.50
2017-11-09T21:14:06.729Z,83.90
2017-11-09T21:16:35.091Z,83.90
2017-11-09T21:19:03.496Z,83.60
2017-11-09T21:21:31.849Z,83.60
2017-11-09T21:24:00.648Z,83.90
2017-11-09T21:26:29.142Z,83.90
2017-11-09T21:28:57.519Z,84.00
2017-11-09T21:31:25.890Z,83.90
2017-11-09T21:33:54.255Z,83.60
2017-11-09T21:36:22.664Z,83.20
2017-11-09T21:38:51.058Z,83.30
2017-11-09T21:41:19.441Z,83.70
2017-11-09T21:43:48.055Z,83.60
2017-11-09T21:46:17.180Z,84.00
2017-11-09T21:48:45.558Z,84.00
2017-11-09T21:51:13.907Z,84.10
2017-11-09T21:53:43.032Z,83.90
2017-11-09T21:56:11.423Z,83.90
2017-11-09T21:58:39.778Z,84.00
2017-11-09T22:01:08.136Z,84.30
2017-11-09T22:03:37.271Z,84.40
2017-11-09T22:06:05.629Z,84.40
2017-11-09T22:08:34.003Z,84.40
2017-11-09T22:11:02.377Z,84.30
2017-11-09T22:13:30.731Z,84.40
2017-11-09T22:15:59.082Z,84.20
2017-11-09T22:18:27.467Z,81.60
2017-11-09T22:20:55.822Z,83.70
2017-11-09T22:23:24.175Z,83.90
2017-11-09T22:25:52.559Z,83.90
2017-11-09T22:28:20.916Z,84.10
2017-11-09T22:30:49.272Z,84.30
2017-11-09T22:33:17.997Z,84.50
2017-11-09T22:35:46.168Z,84.60
2017-11-09T22:38:14.519Z,84.50
2017-11-09T22:40:43.675Z,84.40
2017-11-09T22:43:12.028Z,84.30
2017-11-09T22:45:40.200Z,84.40
2017-11-09T22:48:09.581Z,84.00
2017-11-09T22:50:38.167Z,84.00
2017-11-09T22:53:07.651Z,83.90
2017-11-09T22:55:36.770Z,84.20
2017-11-09T22:58:05.176Z,84.10
2017-11-09T23:00:33.563Z,84.40
2017-11-09T23:03:02.183Z,84.20
2017-11-09T23:05:30.793Z,84.00
2017-11-09T23:07:59.159Z,84.30
2017-11-09T23:10:27.599Z,83.90
2017-11-09T23:12:55.776Z,84.00
2017-11-09T23:15:24.131Z,84.30
2017-11-09T23:17:52.498Z,84.20
2017-11-09T23:20:20.916Z,84.30
2017-11-09T23:22:49.267Z,84.20
2017-11-09T23:25:18.947Z,84.80
2017-11-09T23:27:48.409Z,84.40
2017-11-09T23:30:17.040Z,84.10
2017-11-09T23:32:46.503Z,84.20
2017-11-09T23:35:15.119Z,84.20
2017-11-09T23:37:43.764Z,84.00
2017-11-09T23:40:12.371Z,84.10
2017-11-09T23:42:40.723Z,84.30
2017-11-09T23:45:11.441Z,84.40
2017-11-09T23:47:39.804Z,84.00
2017-11-09T23:50:08.167Z,84.00
2017-11-09T23:52:36.534Z,84.00
2017-11-09T23:55:04.896Z,84.00
2017-11-09T23:57:33.253Z,84.10
